EDT,Max TemperatureF,Mean TemperatureF,Min TemperatureF,Max Dew PointF,MeanDew PointF,Min DewpointF,Max Humidity, Mean Humidity, Min Humidity, Max Sea Level PressureIn, Mean Sea Level PressureIn, Min Sea Level PressureIn, Max VisibilityMiles, Mean VisibilityMiles, Min VisibilityMiles, Max Wind SpeedMPH, Mean Wind SpeedMPH, Max Gust SpeedMPH,PrecipitationIn, CloudCover, Events, WindDirDegrees
2013-10-1,75,60,44,54,50,43,100,71,41,29.97,29.90,29.83,10,10,9,13,5,17,0.00,0,,305
2013-10-2,80,65,50,58,54,49,96,71,46,29.91,29.83,29.77,10,10,10,13,5,16,0.00,0,Fog,277
2013-10-3,75,61,47,55,50,45,96,66,35,30.06,30.01,29.92,10,10,10,13,3,17,0.00,0,,229
2013-10-4,72,60,47,52,49,45,100,69,38,30.10,30.06,30.03,10,10,7,10,3,15,0.00,1,,240
2013-10-5,61,56,51,52,47,43,89,72,55,30.15,30.12,30.08,10,10,10,9,4,13,0.00,8,,38
2013-10-6,55,53,50,51,46,37,96,79,61,30.29,30.23,30.16,10,8,2,16,9,19,0.10,8,Rain,76
2013-10-7,66,60,54,64,58,53,100,92,84,30.19,29.99,29.80,10,3,0,25,11,40,0.41,8,Fog-Rain,147
2013-10-8,63,52,40,53,42,37,89,64,39,30.40,30.15,29.86,10,10,10,17,8,22,0.00,1,,295
2013-10-9,59,47,35,42,39,34,92,68,44,30.50,30.44,30.38,10,10,10,10,3,15,0.00,0,,53
2013-10-10,64,50,36,49,43,35,100,74,47,30.38,30.30,30.20,10,10,10,10,2,13,0.00,0,,231
2013-10-11,67,55,42,52,48,43,100,76,52,30.19,30.16,30.13,10,10,7,8,3,9,0.00,0,,360
2013-10-12,57,51,45,51,48,44,100,86,72,30.43,30.35,30.19,10,10,10,18,6,23,0.00,6,,66
2013-10-13,58,49,39,49,45,40,96,79,62,30.48,30.44,30.41,10,10,5,9,2,12,0.00,5,,107
2013-10-14,60,48,36,50,43,34,100,76,51,30.40,30.32,30.25,10,10,2,13,4,18,T,3,,200
2013-10-15,63,57,51,53,51,49,100,83,65,30.29,30.25,30.21,10,10,9,10,4,14,0.00,8,,86
2013-10-16,58,56,54,55,53,51,100,90,80,30.21,30.10,29.92,10,8,1,13,5,16,0.00,8,,98
2013-10-17,73,62,51,56,52,49,100,71,41,29.90,29.81,29.71,10,9,5,14,6,19,T,5,,222
2013-10-18,68,60,51,59,51,41,100,73,45,29.85,29.69,29.58,10,7,2,22,10,29,0.24,5,Rain,247
2013-10-19,64,53,41,50,43,36,83,62,40,29.94,29.87,29.76,10,10,10,14,7,20,0.00,1,,217
2013-10-20,62,54,45,50,39,29,89,60,31,29.97,29.79,29.67,10,10,10,24,10,30,0.01,2,Rain,243
2013-10-21,64,51,38,49,40,33,83,61,39,30.09,30.03,29.98,10,10,10,15,7,20,0.00,0,,239
2013-10-22,60,51,42,53,47,39,89,80,71,29.97,29.81,29.70,10,10,10,21,7,25,T,4,,214
2013-10-23,53,43,33,40,36,33,92,72,52,29.78,29.69,29.59,10,10,10,12,4,14,0.00,3,,172
2013-10-24,53,45,37,33,29,26,70,54,38,29.83,29.71,29.62,10,10,10,24,11,30,0.00,5,,266
2013-10-25,50,41,31,33,28,24,82,62,42,30.11,29.98,29.85,10,10,10,18,8,23,0.00,3,,280
2013-10-26,52,39,26,33,28,24,92,66,39,30.12,30.01,29.87,10,10,10,20,6,27,T,4,Rain,211
2013-10-27,56,46,36,38,34,26,82,63,43,30.02,29.86,29.79,10,10,9,18,8,24,0.03,6,Rain,244
2013-10-28,58,45,32,33,28,22,75,58,41,30.36,30.13,30.02,10,10,10,23,9,31,0.00,2,,275
2013-10-29,47,36,24,26,22,19,85,60,34,30.47,30.41,30.36,10,10,10,9,4,14,0.00,0,,280
2013-10-30,50,39,27,29,26,22,92,67,42,30.36,30.26,30.18,10,10,10,13,4,17,0.00,3,,259
2013-10-31,57,42,27,55,41,26,100,86,71,30.25,30.06,29.78,10,7,2,15,4,20,0.29,6,Rain,203